Share

Lanett, AL (36863)

Lagrange-Callaway (KLGC) Elev 692 ft | 33.01 °N, 85.07 °W | Change Station

Current weather conditions updated 18 minutes ago

Drizzle
Drizzle
54 °F
Feels Like 54 °F
N
7
Wind Variable Wind from NNE
Sunrise 6:06 AM
Sunset 7:14 PM
Moon Waning Gibbous

Today is forecast to be Warmer than yesterday. Light rain in the morning.

Pressure 30.07 in
Visibility 5.0 miles
Clouds Mostly Cloudy 800 ft
Overcast 1100 ft
Dew Point 53 °F
Humidity 96%
Rainfall 0.00 in
Snow Depth Not available.
UV 0 out of 16
Pollen 6.00 out of 12
Air Quality Not available.
Flu Activity Sporadic
METAR KLGC 191155Z AUTO 02006KT 5SM DZ BKN008 OVC011 12/12 A3007 RMK AO2 T01220116 10122 20107

More Conditions Fewer Conditions

Pressure 30.07 in
Visibility 5.0 miles
Clouds Mostly Cloudy 800 ft
Overcast 1100 ft
Dew Point 53 °F
Humidity 96%
Rainfall 0.00 in
Snow Depth Not available.
UV 0 out of 16
Pollen 6.00 out of 12
Air Quality Not available.
Flu Activity Sporadic
METAR KLGC 191155Z AUTO 02006KT 5SM DZ BKN008 OVC011 12/12 A3007 RMK AO2 T01220116 10122 20107

More Conditions Fewer Conditions

10-Day Weather Forecast

Almanac

Astronomy

Apr. 19, 2014 Rise Set
Actual Time 6:06 AM CDT 7:14 PM CDT
Civil Twilight 5:40 AM CDT 7:39 PM CDT
Nautical Twilight 5:10 AM CDT 8:10 PM CDT
Astronomical Twilight 4:39 AM CDT 8:41 PM CDT
Moon 11:47 PM CDT 9:31 AM CDT
Length of Visible Light 13h 58m
Length of Day
13h 07m
Tomorrow will be 1m 53s longer.
Waning Gibbous, 80% of the Moon is Illuminated
Today
Waning Gibbous
Apr 22
Last Quarter
Apr 29
New
May 6
First Quarter
May 14
Full

Today's Extremes

State Highs State Lows

Community

  • Bleeding Hearts
    Bleeding Hearts
  • Sunset Silhouettes
    Sunset Silhouettes
  • FL sunset Perico Isle
    FL sunset Perico Isle
  • Cloudy spring view
    Cloudy spring view
  • Old barn
    Old barn

WunderPhotos

Upload Photos

1,702,700 photos uploaded!

Nearby

Snow Depth

Station Depth Elevation
No new snow has been reported.

Coastal Water Temperatures

Place Temperature
No Stations Reporting

Earthquake Activity

City Distance Mag. Time & Date
No recent earthquake activity has been reported nearby.
Minimum magnitude displayed is 2.5.

Nearby Weather Stations

Station Location Temp. Dew Point Humidity Wind Precip. Elev Updated Type
Opelika, Opelika, AL 53.8 °F 52 °F 92% ENE  at  7.2 mph 0.00 in / hr 785 ft 7:13 AM CDT Rapid Fire
Opelika, AL - Highland Ave., Opelika, AL 52.9 °F 52 °F 98% North  at  2.0 mph 0.00 in / hr 856 ft 7:13 AM CDT Rapid Fire
Bacon Level, Roanoke, AL 52.2 °F 52 °F 98% SW  at  0.0 mph 0.00 in / hr 791 ft 7:01 AM CDT Normal
Auburn, AL 54.6 °F 53 °F 95% NE  at  0.0 mph - / hr 646 ft 6:59 AM CDT Normal

Show More Stations Show Fewer Stations

What do you think?

We're not finished. Please let us know what you like, what you don't like, and what you are still missing.